sensor_id;sensor_type;location;lat;lon;timestamp;P1;durP1;ratioP1;P2;durP2;ratioP2
5026;SDS011;2532;52.480;13.354;2023-03-03T00:00:46;30.60;;;16.50;;
5026;SDS011;2532;52.480;13.354;2023-03-03T00:03:14;32.40;;;14.87;;
5026;SDS011;2532;52.480;13.354;2023-03-03T00:05:44;31.97;;;15.43;;
5026;SDS011;2532;52.480;13.354;2023-03-03T00:08:11;27.67;;;15.33;;
5026;SDS011;2532;52.480;13.354;2023-03-03T00:10:38;30.70;;;16.10;;
5026;SDS011;2532;52.480;13.354;2023-03-03T00:13:05;30.30;;;16.47;;
5026;SDS011;2532;52.480;13.354;2023-03-03T00:15:39;30.90;;;17.07;;
5026;SDS011;2532;52.480;13.354;2023-03-03T00:18:09;32.23;;;16.57;;
5026;SDS011;2532;52.480;13.354;2023-03-03T00:20:54;31.77;;;16.67;;
5026;SDS011;2532;52.480;13.354;2023-03-03T00:23:24;34.17;;;16.50;;
5026;SDS011;2532;52.480;13.354;2023-03-03T00:25:56;37.43;;;18.33;;
5026;SDS011;2532;52.480;13.354;2023-03-03T00:28:26;37.57;;;18.60;;
5026;SDS011;2532;52.480;13.354;2023-03-03T00:30:57;40.77;;;18.23;;
5026;SDS011;2532;52.480;13.354;2023-03-03T00:33:26;38.13;;;18.90;;
5026;SDS011;2532;52.480;13.354;2023-03-03T00:35:56;36.90;;;20.70;;
5026;SDS011;2532;52.480;13.354;2023-03-03T00:38:40;36.23;;;17.27;;
5026;SDS011;2532;52.480;13.354;2023-03-03T00:41:10;36.80;;;18.00;;
5026;SDS011;2532;52.480;13.354;2023-03-03T00:43:45;30.63;;;16.20;;
5026;SDS011;2532;52.480;13.354;2023-03-03T00:46:15;32.87;;;17.17;;
5026;SDS011;2532;52.480;13.354;2023-03-03T00:48:44;30.80;;;15.07;;
5026;SDS011;2532;52.480;13.354;2023-03-03T00:51:18;35.73;;;16.83;;
5026;SDS011;2532;52.480;13.354;2023-03-03T00:53:51;34.37;;;20.73;;
5026;SDS011;2532;52.480;13.354;2023-03-03T00:56:18;37.80;;;18.67;;
5026;SDS011;2532;52.480;13.354;2023-03-03T00:58:45;31.20;;;16.73;;
5026;SDS011;2532;52.480;13.354;2023-03-03T01:01:12;38.27;;;19.60;;
5026;SDS011;2532;52.480;13.354;2023-03-03T01:03:41;25.47;;;14.67;;
5026;SDS011;2532;52.480;13.354;2023-03-03T01:06:08;29.10;;;16.30;;
5026;SDS011;2532;52.480;13.354;2023-03-03T01:08:36;30.77;;;16.97;;
5026;SDS011;2532;52.480;13.354;2023-03-03T01:11:03;29.90;;;15.73;;
5026;SDS011;2532;52.480;13.354;2023-03-03T01:13:34;26.70;;;14.80;;
5026;SDS011;2532;52.480;13.354;2023-03-03T01:16:02;26.80;;;13.50;;
5026;SDS011;2532;52.480;13.354;2023-03-03T01:18:30;26.30;;;13.00;;
5026;SDS011;2532;52.480;13.354;2023-03-03T01:20:58;30.07;;;15.00;;
5026;SDS011;2532;52.480;13.354;2023-03-03T01:23:26;28.93;;;14.23;;
5026;SDS011;2532;52.480;13.354;2023-03-03T01:25:53;29.77;;;14.70;;
5026;SDS011;2532;52.480;13.354;2023-03-03T01:28:20;30.03;;;14.70;;
5026;SDS011;2532;52.480;13.354;2023-03-03T01:30:49;24.67;;;13.47;;
5026;SDS011;2532;52.480;13.354;2023-03-03T01:33:16;26.40;;;13.67;;
5026;SDS011;2532;52.480;13.354;2023-03-03T01:35:43;30.47;;;15.40;;
5026;SDS011;2532;52.480;13.354;2023-03-03T01:38:12;25.67;;;12.93;;
5026;SDS011;2532;52.480;13.354;2023-03-03T01:40:39;27.00;;;14.57;;
5026;SDS011;2532;52.480;13.354;2023-03-03T01:43:07;24.63;;;12.90;;
5026;SDS011;2532;52.480;13.354;2023-03-03T01:45:40;29.17;;;15.40;;
5026;SDS011;2532;52.480;13.354;2023-03-03T01:48:32;25.80;;;14.13;;
5026;SDS011;2532;52.480;13.354;2023-03-03T01:51:04;29.00;;;14.97;;
5026;SDS011;2532;52.480;13.354;2023-03-03T01:53:40;27.33;;;14.50;;
5026;SDS011;2532;52.480;13.354;2023-03-03T01:56:09;28.07;;;14.07;;
5026;SDS011;2532;52.480;13.354;2023-03-03T01:58:37;24.63;;;13.90;;
5026;SDS011;2532;52.480;13.354;2023-03-03T02:01:08;29.10;;;13.83;;
5026;SDS011;2532;52.480;13.354;2023-03-03T02:03:37;25.63;;;14.23;;
5026;SDS011;2532;52.480;13.354;2023-03-03T02:06:06;29.00;;;14.50;;
5026;SDS011;2532;52.480;13.354;2023-03-03T02:08:41;25.97;;;14.97;;
5026;SDS011;2532;52.480;13.354;2023-03-03T02:11:13;32.20;;;15.73;;
5026;SDS011;2532;52.480;13.354;2023-03-03T02:13:41;24.80;;;14.20;;
5026;SDS011;2532;52.480;13.354;2023-03-03T02:16:10;28.43;;;14.60;;
5026;SDS011;2532;52.480;13.354;2023-03-03T02:18:37;32.77;;;16.90;;
5026;SDS011;2532;52.480;13.354;2023-03-03T02:21:05;27.80;;;15.00;;
5026;SDS011;2532;52.480;13.354;2023-03-03T02:23:37;28.57;;;15.60;;
5026;SDS011;2532;52.480;13.354;2023-03-03T02:26:12;33.03;;;16.57;;
5026;SDS011;2532;52.480;13.354;2023-03-03T02:28:41;29.27;;;15.73;;
5026;SDS011;2532;52.480;13.354;2023-03-03T02:31:09;30.10;;;15.73;;
5026;SDS011;2532;52.480;13.354;2023-03-03T02:33:38;28.47;;;15.77;;
5026;SDS011;2532;52.480;13.354;2023-03-03T02:36:11;29.17;;;15.80;;
5026;SDS011;2532;52.480;13.354;2023-03-03T02:38:40;30.97;;;16.17;;
5026;SDS011;2532;52.480;13.354;2023-03-03T02:41:17;28.73;;;15.40;;
5026;SDS011;2532;52.480;13.354;2023-03-03T02:43:51;33.10;;;16.70;;
5026;SDS011;2532;52.480;13.354;2023-03-03T02:46:23;29.70;;;15.83;;
5026;SDS011;2532;52.480;13.354;2023-03-03T02:48:50;30.40;;;15.63;;
5026;SDS011;2532;52.480;13.354;2023-03-03T02:51:17;31.10;;;17.23;;
5026;SDS011;2532;52.480;13.354;2023-03-03T02:53:44;29.97;;;16.60;;
5026;SDS011;2532;52.480;13.354;2023-03-03T02:56:11;30.17;;;15.70;;
5026;SDS011;2532;52.480;13.354;2023-03-03T02:58:39;34.23;;;16.37;;
5026;SDS011;2532;52.480;13.354;2023-03-03T03:01:06;32.73;;;15.30;;
5026;SDS011;2532;52.480;13.354;2023-03-03T03:03:33;29.17;;;17.13;;
5026;SDS011;2532;52.480;13.354;2023-03-03T03:06:00;31.50;;;16.37;;
5026;SDS011;2532;52.480;13.354;2023-03-03T03:08:27;31.20;;;16.60;;
5026;SDS011;2532;52.480;13.354;2023-03-03T03:10:57;31.57;;;15.53;;
5026;SDS011;2532;52.480;13.354;2023-03-03T03:13:24;35.93;;;19.97;;
5026;SDS011;2532;52.480;13.354;2023-03-03T03:15:52;31.13;;;16.63;;
5026;SDS011;2532;52.480;13.354;2023-03-03T03:18:19;32.30;;;16.30;;
5026;SDS011;2532;52.480;13.354;2023-03-03T03:20:46;36.97;;;18.60;;
5026;SDS011;2532;52.480;13.354;2023-03-03T03:23:13;34.93;;;17.00;;
5026;SDS011;2532;52.480;13.354;2023-03-03T03:25:42;35.07;;;18.07;;
5026;SDS011;2532;52.480;13.354;2023-03-03T03:28:10;31.40;;;14.93;;
5026;SDS011;2532;52.480;13.354;2023-03-03T03:30:38;36.53;;;16.33;;
5026;SDS011;2532;52.480;13.354;2023-03-03T03:33:07;27.77;;;14.43;;
5026;SDS011;2532;52.480;13.354;2023-03-03T03:35:34;33.20;;;14.77;;
5026;SDS011;2532;52.480;13.354;2023-03-03T03:38:02;33.80;;;15.90;;
5026;SDS011;2532;52.480;13.354;2023-03-03T03:40:29;34.10;;;15.60;;
5026;SDS011;2532;52.480;13.354;2023-03-03T03:42:56;35.40;;;16.00;;
5026;SDS011;2532;52.480;13.354;2023-03-03T03:45:23;34.10;;;16.57;;
5026;SDS011;2532;52.480;13.354;2023-03-03T03:47:49;33.70;;;14.00;;
5026;SDS011;2532;52.480;13.354;2023-03-03T03:50:18;30.10;;;14.40;;
5026;SDS011;2532;52.480;13.354;2023-03-03T03:52:44;34.87;;;15.40;;
5026;SDS011;2532;52.480;13.354;2023-03-03T03:55:12;34.87;;;15.90;;
5026;SDS011;2532;52.480;13.354;2023-03-03T03:57:39;31.27;;;14.60;;
5026;SDS011;2532;52.480;13.354;2023-03-03T04:00:06;39.13;;;14.50;;
5026;SDS011;2532;52.480;13.354;2023-03-03T04:02:34;32.73;;;14.90;;
5026;SDS011;2532;52.480;13.354;2023-03-03T04:05:01;38.27;;;18.10;;
5026;SDS011;2532;52.480;13.354;2023-03-03T04:07:30;37.63;;;16.97;;
5026;SDS011;2532;52.480;13.354;2023-03-03T04:09:57;36.87;;;17.90;;
5026;SDS011;2532;52.480;13.354;2023-03-03T04:12:24;43.13;;;20.77;;
5026;SDS011;2532;52.480;13.354;2023-03-03T04:14:51;38.73;;;19.50;;
5026;SDS011;2532;52.480;13.354;2023-03-03T04:17:18;38.63;;;17.93;;
5026;SDS011;2532;52.480;13.354;2023-03-03T04:19:46;39.97;;;19.27;;
5026;SDS011;2532;52.480;13.354;2023-03-03T04:22:13;36.23;;;17.13;;
5026;SDS011;2532;52.480;13.354;2023-03-03T04:24:42;43.27;;;18.53;;
5026;SDS011;2532;52.480;13.354;2023-03-03T04:27:08;37.43;;;17.90;;
5026;SDS011;2532;52.480;13.354;2023-03-03T04:29:37;37.50;;;17.17;;
5026;SDS011;2532;52.480;13.354;2023-03-03T04:32:04;39.40;;;18.67;;
5026;SDS011;2532;52.480;13.354;2023-03-03T04:34:31;44.77;;;16.40;;
5026;SDS011;2532;52.480;13.354;2023-03-03T04:36:58;38.43;;;16.97;;
5026;SDS011;2532;52.480;13.354;2023-03-03T04:39:26;37.00;;;16.60;;
5026;SDS011;2532;52.480;13.354;2023-03-03T04:41:54;39.90;;;18.97;;
5026;SDS011;2532;52.480;13.354;2023-03-03T04:44:21;46.70;;;22.30;;
5026;SDS011;2532;52.480;13.354;2023-03-03T04:46:48;45.40;;;19.23;;
5026;SDS011;2532;52.480;13.354;2023-03-03T04:49:15;36.93;;;15.73;;
5026;SDS011;2532;52.480;13.354;2023-03-03T04:51:42;35.97;;;16.70;;
5026;SDS011;2532;52.480;13.354;2023-03-03T04:54:09;38.33;;;17.53;;
5026;SDS011;2532;52.480;13.354;2023-03-03T04:56:36;40.33;;;16.40;;
5026;SDS011;2532;52.480;13.354;2023-03-03T04:59:04;39.00;;;18.70;;
5026;SDS011;2532;52.480;13.354;2023-03-03T05:01:31;36.10;;;16.20;;
5026;SDS011;2532;52.480;13.354;2023-03-03T05:03:58;43.00;;;20.00;;
5026;SDS011;2532;52.480;13.354;2023-03-03T05:06:25;42.97;;;15.93;;
5026;SDS011;2532;52.480;13.354;2023-03-03T05:08:52;47.83;;;16.53;;
5026;SDS011;2532;52.480;13.354;2023-03-03T05:11:19;37.00;;;17.10;;
5026;SDS011;2532;52.480;13.354;2023-03-03T05:16:15;44.17;;;16.80;;
5026;SDS011;2532;52.480;13.354;2023-03-03T05:18:42;32.10;;;15.20;;
5026;SDS011;2532;52.480;13.354;2023-03-03T05:21:09;35.50;;;15.93;;
5026;SDS011;2532;52.480;13.354;2023-03-03T05:23:36;35.53;;;15.77;;
5026;SDS011;2532;52.480;13.354;2023-03-03T05:26:03;39.33;;;16.83;;
5026;SDS011;2532;52.480;13.354;2023-03-03T05:28:30;39.33;;;17.97;;
5026;SDS011;2532;52.480;13.354;2023-03-03T05:30:57;36.57;;;17.57;;
5026;SDS011;2532;52.480;13.354;2023-03-03T05:33:26;50.77;;;23.40;;
5026;SDS011;2532;52.480;13.354;2023-03-03T05:35:53;39.83;;;17.93;;
5026;SDS011;2532;52.480;13.354;2023-03-03T05:38:20;34.10;;;15.83;;
5026;SDS011;2532;52.480;13.354;2023-03-03T05:40:47;37.40;;;16.57;;
5026;SDS011;2532;52.480;13.354;2023-03-03T05:43:14;36.63;;;16.10;;
5026;SDS011;2532;52.480;13.354;2023-03-03T05:45:42;33.67;;;18.67;;
5026;SDS011;2532;52.480;13.354;2023-03-03T05:48:09;43.00;;;17.70;;
5026;SDS011;2532;52.480;13.354;2023-03-03T05:50:37;47.07;;;16.07;;
5026;SDS011;2532;52.480;13.354;2023-03-03T05:53:04;32.93;;;15.50;;
5026;SDS011;2532;52.480;13.354;2023-03-03T05:55:31;29.70;;;14.03;;
5026;SDS011;2532;52.480;13.354;2023-03-03T05:57:58;36.67;;;18.37;;
5026;SDS011;2532;52.480;13.354;2023-03-03T06:00:25;35.80;;;16.60;;
5026;SDS011;2532;52.480;13.354;2023-03-03T06:02:52;36.83;;;14.27;;
5026;SDS011;2532;52.480;13.354;2023-03-03T06:05:19;31.37;;;14.63;;
5026;SDS011;2532;52.480;13.354;2023-03-03T06:07:47;37.80;;;15.13;;
5026;SDS011;2532;52.480;13.354;2023-03-03T06:10:14;37.23;;;17.13;;
5026;SDS011;2532;52.480;13.354;2023-03-03T06:12:41;42.60;;;18.50;;
5026;SDS011;2532;52.480;13.354;2023-03-03T06:15:09;44.97;;;18.30;;
5026;SDS011;2532;52.480;13.354;2023-03-03T06:17:37;45.10;;;17.00;;
5026;SDS011;2532;52.480;13.354;2023-03-03T06:20:05;37.77;;;17.20;;
5026;SDS011;2532;52.480;13.354;2023-03-03T06:22:33;39.17;;;16.57;;
5026;SDS011;2532;52.480;13.354;2023-03-03T06:25:01;38.93;;;15.30;;
5026;SDS011;2532;52.480;13.354;2023-03-03T06:27:28;36.23;;;17.10;;
5026;SDS011;2532;52.480;13.354;2023-03-03T06:29:55;45.40;;;19.17;;
5026;SDS011;2532;52.480;13.354;2023-03-03T06:32:22;45.40;;;18.83;;
5026;SDS011;2532;52.480;13.354;2023-03-03T06:34:49;38.13;;;17.37;;
5026;SDS011;2532;52.480;13.354;2023-03-03T06:37:16;53.03;;;19.70;;
5026;SDS011;2532;52.480;13.354;2023-03-03T06:39:43;44.37;;;18.10;;
5026;SDS011;2532;52.480;13.354;2023-03-03T06:42:11;32.23;;;15.90;;
5026;SDS011;2532;52.480;13.354;2023-03-03T06:44:39;36.57;;;16.43;;
5026;SDS011;2532;52.480;13.354;2023-03-03T06:47:10;35.40;;;15.33;;
5026;SDS011;2532;52.480;13.354;2023-03-03T06:49:36;35.87;;;16.03;;
5026;SDS011;2532;52.480;13.354;2023-03-03T06:52:08;37.17;;;17.17;;
5026;SDS011;2532;52.480;13.354;2023-03-03T06:54:38;40.30;;;16.30;;
5026;SDS011;2532;52.480;13.354;2023-03-03T06:57:09;33.03;;;15.57;;
5026;SDS011;2532;52.480;13.354;2023-03-03T06:59:43;37.93;;;17.50;;
5026;SDS011;2532;52.480;13.354;2023-03-03T07:02:13;41.13;;;19.23;;
5026;SDS011;2532;52.480;13.354;2023-03-03T07:04:43;50.70;;;21.20;;
5026;SDS011;2532;52.480;13.354;2023-03-03T07:07:14;46.67;;;18.87;;
5026;SDS011;2532;52.480;13.354;2023-03-03T07:09:43;53.47;;;23.03;;
5026;SDS011;2532;52.480;13.354;2023-03-03T07:12:12;48.27;;;22.47;;
5026;SDS011;2532;52.480;13.354;2023-03-03T07:14:46;48.27;;;17.73;;
5026;SDS011;2532;52.480;13.354;2023-03-03T07:17:20;39.60;;;17.60;;
5026;SDS011;2532;52.480;13.354;2023-03-03T07:19:49;35.40;;;15.93;;
5026;SDS011;2532;52.480;13.354;2023-03-03T07:22:17;34.57;;;14.90;;
5026;SDS011;2532;52.480;13.354;2023-03-03T07:24:47;36.83;;;15.63;;
5026;SDS011;2532;52.480;13.354;2023-03-03T07:27:18;32.50;;;14.00;;
5026;SDS011;2532;52.480;13.354;2023-03-03T07:29:49;32.30;;;14.50;;
5026;SDS011;2532;52.480;13.354;2023-03-03T07:32:21;35.50;;;14.10;;
5026;SDS011;2532;52.480;13.354;2023-03-03T07:34:51;37.70;;;18.23;;
5026;SDS011;2532;52.480;13.354;2023-03-03T07:37:24;53.00;;;18.20;;
5026;SDS011;2532;52.480;13.354;2023-03-03T07:40:00;35.37;;;15.70;;
5026;SDS011;2532;52.480;13.354;2023-03-03T07:42:33;40.70;;;18.13;;
5026;SDS011;2532;52.480;13.354;2023-03-03T07:45:16;37.60;;;15.93;;
5026;SDS011;2532;52.480;13.354;2023-03-03T07:47:50;41.90;;;17.50;;
5026;SDS011;2532;52.480;13.354;2023-03-03T07:50:19;35.70;;;17.10;;
5026;SDS011;2532;52.480;13.354;2023-03-03T07:52:49;41.40;;;19.50;;
5026;SDS011;2532;52.480;13.354;2023-03-03T07:55:22;41.87;;;15.53;;
5026;SDS011;2532;52.480;13.354;2023-03-03T07:57:57;31.33;;;13.53;;
5026;SDS011;2532;52.480;13.354;2023-03-03T08:03:53;30.97;;;14.03;;
5026;SDS011;2532;52.480;13.354;2023-03-03T08:06:41;34.83;;;15.57;;
5026;SDS011;2532;52.480;13.354;2023-03-03T08:09:26;32.43;;;15.60;;
5026;SDS011;2532;52.480;13.354;2023-03-03T08:17:45;35.40;;;14.97;;
5026;SDS011;2532;52.480;13.354;2023-03-03T08:20:30;33.40;;;13.87;;
5026;SDS011;2532;52.480;13.354;2023-03-03T08:23:08;33.10;;;15.63;;
5026;SDS011;2532;52.480;13.354;2023-03-03T08:25:35;45.03;;;17.23;;
5026;SDS011;2532;52.480;13.354;2023-03-03T08:28:03;39.53;;;16.10;;
5026;SDS011;2532;52.480;13.354;2023-03-03T08:30:31;32.80;;;14.40;;
5026;SDS011;2532;52.480;13.354;2023-03-03T08:32:58;34.60;;;14.43;;
5026;SDS011;2532;52.480;13.354;2023-03-03T08:35:26;28.50;;;12.10;;
5026;SDS011;2532;52.480;13.354;2023-03-03T08:37:53;23.53;;;11.23;;
5026;SDS011;2532;52.480;13.354;2023-03-03T08:40:20;26.83;;;14.30;;
5026;SDS011;2532;52.480;13.354;2023-03-03T08:42:47;33.17;;;15.60;;
5026;SDS011;2532;52.480;13.354;2023-03-03T08:45:14;26.40;;;11.70;;
5026;SDS011;2532;52.480;13.354;2023-03-03T08:47:43;20.00;;;10.60;;
5026;SDS011;2532;52.480;13.354;2023-03-03T08:50:10;22.20;;;11.53;;
5026;SDS011;2532;52.480;13.354;2023-03-03T08:52:37;23.73;;;10.67;;
5026;SDS011;2532;52.480;13.354;2023-03-03T08:55:04;29.13;;;13.60;;
5026;SDS011;2532;52.480;13.354;2023-03-03T08:57:31;25.30;;;11.77;;
5026;SDS011;2532;52.480;13.354;2023-03-03T08:59:58;23.07;;;12.30;;
5026;SDS011;2532;52.480;13.354;2023-03-03T09:02:25;29.40;;;12.80;;
5026;SDS011;2532;52.480;13.354;2023-03-03T09:04:53;26.13;;;12.60;;
5026;SDS011;2532;52.480;13.354;2023-03-03T09:07:20;25.30;;;12.63;;
5026;SDS011;2532;52.480;13.354;2023-03-03T09:09:47;26.13;;;13.03;;
5026;SDS011;2532;52.480;13.354;2023-03-03T09:12:15;25.67;;;12.30;;
5026;SDS011;2532;52.480;13.354;2023-03-03T09:14:44;31.37;;;14.60;;
5026;SDS011;2532;52.480;13.354;2023-03-03T09:17:17;27.10;;;13.17;;
5026;SDS011;2532;52.480;13.354;2023-03-03T09:19:50;36.20;;;16.50;;
5026;SDS011;2532;52.480;13.354;2023-03-03T09:22:20;24.27;;;11.90;;
5026;SDS011;2532;52.480;13.354;2023-03-03T09:24:49;29.27;;;13.77;;
5026;SDS011;2532;52.480;13.354;2023-03-03T09:27:21;29.37;;;13.50;;
5026;SDS011;2532;52.480;13.354;2023-03-03T09:29:56;23.23;;;10.53;;
5026;SDS011;2532;52.480;13.354;2023-03-03T09:32:30;25.83;;;13.83;;
5026;SDS011;2532;52.480;13.354;2023-03-03T09:35:00;29.23;;;14.00;;
5026;SDS011;2532;52.480;13.354;2023-03-03T09:37:51;26.20;;;12.43;;
5026;SDS011;2532;52.480;13.354;2023-03-03T09:40:27;25.33;;;13.10;;
5026;SDS011;2532;52.480;13.354;2023-03-03T09:43:10;29.50;;;12.37;;
5026;SDS011;2532;52.480;13.354;2023-03-03T09:45:45;23.70;;;10.57;;
5026;SDS011;2532;52.480;13.354;2023-03-03T09:48:23;20.87;;;11.90;;
5026;SDS011;2532;52.480;13.354;2023-03-03T09:51:16;30.10;;;15.03;;
5026;SDS011;2532;52.480;13.354;2023-03-03T09:53:55;20.50;;;9.90;;
5026;SDS011;2532;52.480;13.354;2023-03-03T09:56:32;24.87;;;12.80;;
5026;SDS011;2532;52.480;13.354;2023-03-03T09:59:08;24.10;;;12.13;;
5026;SDS011;2532;52.480;13.354;2023-03-03T10:01:52;20.77;;;10.70;;
5026;SDS011;2532;52.480;13.354;2023-03-03T10:07:42;21.47;;;10.23;;
5026;SDS011;2532;52.480;13.354;2023-03-03T10:10:30;20.10;;;10.57;;
5026;SDS011;2532;52.480;13.354;2023-03-03T10:13:14;17.67;;;10.07;;
5026;SDS011;2532;52.480;13.354;2023-03-03T10:16:00;26.37;;;13.50;;
5026;SDS011;2532;52.480;13.354;2023-03-03T10:18:41;22.87;;;10.63;;
5026;SDS011;2532;52.480;13.354;2023-03-03T10:21:18;23.63;;;11.27;;
5026;SDS011;2532;52.480;13.354;2023-03-03T10:23:54;17.63;;;8.90;;
5026;SDS011;2532;52.480;13.354;2023-03-03T10:26:27;21.70;;;11.00;;
5026;SDS011;2532;52.480;13.354;2023-03-03T10:29:09;17.07;;;10.50;;
5026;SDS011;2532;52.480;13.354;2023-03-03T10:31:58;19.67;;;10.20;;
5026;SDS011;2532;52.480;13.354;2023-03-03T10:34:46;22.30;;;10.77;;
5026;SDS011;2532;52.480;13.354;2023-03-03T10:37:27;18.47;;;10.00;;
5026;SDS011;2532;52.480;13.354;2023-03-03T10:40:19;17.70;;;8.97;;
5026;SDS011;2532;52.480;13.354;2023-03-03T10:45:54;18.67;;;10.07;;
5026;SDS011;2532;52.480;13.354;2023-03-03T10:48:43;17.27;;;9.73;;
5026;SDS011;2532;52.480;13.354;2023-03-03T10:51:21;23.70;;;9.93;;
5026;SDS011;2532;52.480;13.354;2023-03-03T10:54:00;23.00;;;11.17;;
5026;SDS011;2532;52.480;13.354;2023-03-03T10:56:45;18.90;;;9.90;;
5026;SDS011;2532;52.480;13.354;2023-03-03T10:59:36;22.43;;;10.73;;
5026;SDS011;2532;52.480;13.354;2023-03-03T11:02:15;20.33;;;10.87;;
5026;SDS011;2532;52.480;13.354;2023-03-03T11:04:53;25.60;;;12.73;;
5026;SDS011;2532;52.480;13.354;2023-03-03T11:07:31;23.03;;;12.20;;
5026;SDS011;2532;52.480;13.354;2023-03-03T11:10:10;21.67;;;12.23;;
5026;SDS011;2532;52.480;13.354;2023-03-03T11:13:00;24.10;;;13.13;;
5026;SDS011;2532;52.480;13.354;2023-03-03T11:15:43;20.57;;;11.60;;
5026;SDS011;2532;52.480;13.354;2023-03-03T11:18:32;20.40;;;10.70;;
5026;SDS011;2532;52.480;13.354;2023-03-03T11:21:11;25.10;;;10.57;;
5026;SDS011;2532;52.480;13.354;2023-03-03T11:23:49;24.60;;;11.77;;
5026;SDS011;2532;52.480;13.354;2023-03-03T11:26:28;24.33;;;12.80;;
5026;SDS011;2532;52.480;13.354;2023-03-03T11:29:18;32.73;;;14.77;;
5026;SDS011;2532;52.480;13.354;2023-03-03T11:31:59;27.73;;;13.50;;
5026;SDS011;2532;52.480;13.354;2023-03-03T11:34:43;26.50;;;12.00;;
5026;SDS011;2532;52.480;13.354;2023-03-03T11:37:20;25.03;;;12.70;;
5026;SDS011;2532;52.480;13.354;2023-03-03T11:39:52;29.80;;;13.57;;
5026;SDS011;2532;52.480;13.354;2023-03-03T11:42:23;29.03;;;14.50;;
5026;SDS011;2532;52.480;13.354;2023-03-03T11:45:00;34.53;;;13.80;;
5026;SDS011;2532;52.480;13.354;2023-03-03T11:47:31;28.30;;;14.00;;
5026;SDS011;2532;52.480;13.354;2023-03-03T11:50:07;25.33;;;12.13;;
5026;SDS011;2532;52.480;13.354;2023-03-03T11:52:42;30.27;;;14.03;;
5026;SDS011;2532;52.480;13.354;2023-03-03T11:55:14;29.20;;;12.87;;
5026;SDS011;2532;52.480;13.354;2023-03-03T11:57:44;29.40;;;12.60;;
5026;SDS011;2532;52.480;13.354;2023-03-03T12:00:18;28.53;;;12.40;;
5026;SDS011;2532;52.480;13.354;2023-03-03T12:03:00;31.77;;;13.07;;
5026;SDS011;2532;52.480;13.354;2023-03-03T12:05:46;22.17;;;11.33;;
5026;SDS011;2532;52.480;13.354;2023-03-03T12:08:33;25.90;;;13.30;;
5026;SDS011;2532;52.480;13.354;2023-03-03T12:11:07;28.90;;;13.57;;
5026;SDS011;2532;52.480;13.354;2023-03-03T12:13:49;33.03;;;15.43;;
5026;SDS011;2532;52.480;13.354;2023-03-03T12:16:23;27.17;;;12.60;;
5026;SDS011;2532;52.480;13.354;2023-03-03T12:19:04;30.70;;;14.10;;
5026;SDS011;2532;52.480;13.354;2023-03-03T12:21:46;26.43;;;13.20;;
5026;SDS011;2532;52.480;13.354;2023-03-03T12:24:32;29.40;;;13.47;;
5026;SDS011;2532;52.480;13.354;2023-03-03T12:27:10;27.10;;;12.90;;
5026;SDS011;2532;52.480;13.354;2023-03-03T12:29:44;27.70;;;13.60;;
5026;SDS011;2532;52.480;13.354;2023-03-03T12:32:26;22.90;;;12.67;;
5026;SDS011;2532;52.480;13.354;2023-03-03T12:35:11;24.20;;;12.07;;
5026;SDS011;2532;52.480;13.354;2023-03-03T12:37:46;32.67;;;13.57;;
5026;SDS011;2532;52.480;13.354;2023-03-03T12:40:19;28.13;;;11.80;;
5026;SDS011;2532;52.480;13.354;2023-03-03T12:42:53;25.73;;;13.60;;
5026;SDS011;2532;52.480;13.354;2023-03-03T12:45:43;26.53;;;13.20;;
5026;SDS011;2532;52.480;13.354;2023-03-03T12:48:21;32.90;;;14.53;;
5026;SDS011;2532;52.480;13.354;2023-03-03T12:50:56;26.70;;;12.07;;
5026;SDS011;2532;52.480;13.354;2023-03-03T12:53:38;27.87;;;13.93;;
5026;SDS011;2532;52.480;13.354;2023-03-03T12:56:15;28.13;;;13.10;;
5026;SDS011;2532;52.480;13.354;2023-03-03T12:58:51;30.97;;;12.97;;
5026;SDS011;2532;52.480;13.354;2023-03-03T13:01:32;28.50;;;13.37;;
5026;SDS011;2532;52.480;13.354;2023-03-03T13:04:09;30.97;;;14.13;;
5026;SDS011;2532;52.480;13.354;2023-03-03T13:06:46;30.43;;;14.77;;
5026;SDS011;2532;52.480;13.354;2023-03-03T13:09:22;29.23;;;13.40;;
5026;SDS011;2532;52.480;13.354;2023-03-03T13:12:01;25.67;;;12.60;;
5026;SDS011;2532;52.480;13.354;2023-03-03T13:14:37;27.87;;;13.67;;
5026;SDS011;2532;52.480;13.354;2023-03-03T13:17:14;25.23;;;13.87;;
5026;SDS011;2532;52.480;13.354;2023-03-03T13:19:45;24.83;;;12.23;;
5026;SDS011;2532;52.480;13.354;2023-03-03T13:22:20;31.50;;;14.17;;
5026;SDS011;2532;52.480;13.354;2023-03-03T13:25:01;29.93;;;13.30;;
5026;SDS011;2532;52.480;13.354;2023-03-03T13:27:31;29.93;;;13.23;;
5026;SDS011;2532;52.480;13.354;2023-03-03T13:30:11;36.30;;;14.03;;
5026;SDS011;2532;52.480;13.354;2023-03-03T13:32:43;24.53;;;13.37;;
5026;SDS011;2532;52.480;13.354;2023-03-03T13:35:18;27.30;;;13.80;;
5026;SDS011;2532;52.480;13.354;2023-03-03T13:37:56;31.93;;;16.33;;
5026;SDS011;2532;52.480;13.354;2023-03-03T13:40:24;27.63;;;13.10;;
5026;SDS011;2532;52.480;13.354;2023-03-03T13:43:03;26.57;;;14.83;;
5026;SDS011;2532;52.480;13.354;2023-03-03T13:45:36;31.47;;;16.47;;
5026;SDS011;2532;52.480;13.354;2023-03-03T13:48:14;33.43;;;15.80;;
5026;SDS011;2532;52.480;13.354;2023-03-03T13:50:55;29.00;;;15.20;;
5026;SDS011;2532;52.480;13.354;2023-03-03T13:53:36;36.10;;;17.47;;
5026;SDS011;2532;52.480;13.354;2023-03-03T13:56:19;32.43;;;15.90;;
5026;SDS011;2532;52.480;13.354;2023-03-03T13:59:00;36.30;;;15.03;;
5026;SDS011;2532;52.480;13.354;2023-03-03T14:01:38;29.77;;;15.17;;
5026;SDS011;2532;52.480;13.354;2023-03-03T14:04:19;28.90;;;14.33;;
5026;SDS011;2532;52.480;13.354;2023-03-03T14:06:58;27.17;;;14.07;;
5026;SDS011;2532;52.480;13.354;2023-03-03T14:09:43;35.00;;;15.17;;
5026;SDS011;2532;52.480;13.354;2023-03-03T14:12:19;28.70;;;13.30;;
5026;SDS011;2532;52.480;13.354;2023-03-03T14:14:57;30.30;;;14.20;;
5026;SDS011;2532;52.480;13.354;2023-03-03T14:17:31;30.40;;;15.33;;
5026;SDS011;2532;52.480;13.354;2023-03-03T14:20:09;26.70;;;14.67;;
5026;SDS011;2532;52.480;13.354;2023-03-03T14:22:44;26.50;;;14.00;;
5026;SDS011;2532;52.480;13.354;2023-03-03T14:25:18;29.77;;;12.07;;
5026;SDS011;2532;52.480;13.354;2023-03-03T14:27:59;21.47;;;12.60;;
5026;SDS011;2532;52.480;13.354;2023-03-03T14:30:36;24.20;;;12.10;;
5026;SDS011;2532;52.480;13.354;2023-03-03T14:33:14;29.00;;;13.63;;
5026;SDS011;2532;52.480;13.354;2023-03-03T14:35:51;20.30;;;11.43;;
5026;SDS011;2532;52.480;13.354;2023-03-03T14:38:44;22.90;;;12.10;;
5026;SDS011;2532;52.480;13.354;2023-03-03T14:41:15;25.67;;;13.70;;
5026;SDS011;2532;52.480;13.354;2023-03-03T14:43:44;27.60;;;12.73;;
5026;SDS011;2532;52.480;13.354;2023-03-03T14:46:29;24.63;;;12.50;;
5026;SDS011;2532;52.480;13.354;2023-03-03T14:49:02;26.47;;;11.83;;
5026;SDS011;2532;52.480;13.354;2023-03-03T14:51:32;23.03;;;12.93;;
5026;SDS011;2532;52.480;13.354;2023-03-03T14:54:07;22.73;;;13.27;;
5026;SDS011;2532;52.480;13.354;2023-03-03T14:56:54;26.07;;;14.13;;
5026;SDS011;2532;52.480;13.354;2023-03-03T14:59:32;25.57;;;13.30;;
5026;SDS011;2532;52.480;13.354;2023-03-03T15:07:47;23.77;;;13.00;;
5026;SDS011;2532;52.480;13.354;2023-03-03T15:10:32;24.27;;;12.70;;
5026;SDS011;2532;52.480;13.354;2023-03-03T15:13:11;23.90;;;12.47;;
5026;SDS011;2532;52.480;13.354;2023-03-03T15:16:03;24.63;;;14.17;;
5026;SDS011;2532;52.480;13.354;2023-03-03T15:18:48;24.07;;;12.87;;
5026;SDS011;2532;52.480;13.354;2023-03-03T15:21:24;28.30;;;13.43;;
5026;SDS011;2532;52.480;13.354;2023-03-03T15:23:57;30.33;;;12.97;;
5026;SDS011;2532;52.480;13.354;2023-03-03T15:26:29;24.60;;;13.43;;
5026;SDS011;2532;52.480;13.354;2023-03-03T15:29:07;26.30;;;13.40;;
5026;SDS011;2532;52.480;13.354;2023-03-03T15:31:45;23.10;;;13.17;;